Flight Track Log - Related Links

Times and Time Zones

All times are in EST time to prevent confusion due to time zone crossing. See the N789EX flight status page for this flight to view local times or setup timezone preferences in your user account.

Time Position Orientation Groundspeed Altitude Reporting Facility
EST Latitude Longitude Course Direction KTS MPH feet Rate Location/Type
Mon 01:30:13 PM 47.4917 -122.2700 152° Southeast 212 244 1,700  Level FlightAware ADS-B
Mon 01:30:28 PM 47.4782 -122.2580 149° Southeast 233 268 2,200 2,571 Climbing FlightAware ADS-B
Mon 01:30:41 PM 47.4662 -122.2470 148° Southeast 240 276 2,900 3,250 Climbing FlightAware ADS-B
Mon 01:30:52 PM 47.4561 -122.2370 146° Southeast 244 281 3,500 3,600 Climbing FlightAware ADS-B
Mon 01:30:56 PM 47.4527 -122.2330 141° Southeast 246 283 3,800 4,286 Climbing FlightAware ADS-B
Mon 01:30:59 PM 47.4496 -122.2290 139° Southeast 247 284 4,000 3,429 Climbing FlightAware ADS-B
Mon 01:31:03 PM 47.4467 -122.2240 131° Southeast 251 289 4,200 3,000 Climbing FlightAware ADS-B
Mon 01:31:07 PM 47.4442 -122.2180 122° Southeast 254 292 4,400 3,429 Climbing FlightAware ADS-B
Mon 01:31:10 PM 47.4427 -122.2130 114° Southeast 256 295 4,600 4,286 Climbing FlightAware ADS-B
Mon 01:31:14 PM 47.4412 -122.2070 110° East 261 300 4,900 3,750 Climbing FlightAware ADS-B
Mon 01:31:18 PM 47.4404 -122.2000 100° East 265 305 5,100 2,571 Climbing FlightAware ADS-B
Mon 01:31:21 PM 47.4403 -122.1940 91° East 267 307 5,200 1,714 Climbing FlightAware ADS-B
Mon 01:31:25 PM 47.4407 -122.1880 84° East 268 308 5,300 1,714 Climbing FlightAware ADS-B
Mon 01:31:28 PM 47.4415 -122.1820 79° East 268 308 5,400 2,000 Climbing FlightAware ADS-B
Mon 01:31:31 PM 47.4427 -122.1770 70° East 270 311 5,500 2,000 Climbing FlightAware ADS-B
Mon 01:31:34 PM 47.4443 -122.1720 65° Northeast 272 313 5,600 1,714 Climbing FlightAware ADS-B
Mon 01:31:38 PM 47.4474 -122.1650 57° Northeast 278 320 5,700 1,714 Climbing FlightAware ADS-B
Mon 01:31:41 PM 47.4501 -122.1600 51° Northeast 280 322 5,800 2,250 Climbing FlightAware ADS-B
Mon 01:31:46 PM 47.4543 -122.1540 44° Northeast 280 322 6,000 3,273 Climbing FlightAware ADS-B
Mon 01:31:52 PM 47.4608 -122.1470 36° Northeast 279 321 6,400 3,429 Climbing FlightAware ADS-B
Mon 01:32:07 PM 47.4763 -122.1310 35° Northeast 284 327 7,200 3,333 Climbing FlightAware ADS-B
Mon 01:32:19 PM 47.4889 -122.1170 37° Northeast 285 328 7,900 3,375 Climbing FlightAware ADS-B
Mon 01:32:23 PM 47.4936 -122.1130 30° Northeast 286 329 8,100 3,429 Climbing FlightAware ADS-B
Mon 01:32:26 PM 47.4971 -122.1100 30° Northeast 287 330 8,300 3,000 Climbing FlightAware ADS-B
Mon 01:32:29 PM 47.5012 -122.1070 26° Northeast 288 331 8,400 2,571 Climbing FlightAware ADS-B
Mon 01:32:33 PM 47.5062 -122.1040 22° Northeast 289 333 8,600 3,000 Climbing FlightAware ADS-B
Mon 01:32:37 PM 47.5108 -122.1020 16° North 289 333 8,800 3,000 Climbing FlightAware ADS-B
Mon 01:32:41 PM 47.5161 -122.1010 North 290 334 9,000 2,571 Climbing FlightAware ADS-B
Mon 01:32:44 PM 47.5200 -122.1000 10° North 290 334 9,100 2,667 Climbing FlightAware ADS-B
Mon 01:32:50 PM 47.5281 -122.0990 North 292 336 9,400 3,000 Climbing FlightAware ADS-B
Mon 01:32:54 PM 47.5335 -122.0990 360° North 294 338 9,600 3,429 Climbing FlightAware ADS-B
Mon 01:32:57 PM 47.5382 -122.0990 360° North 295 339 9,800 3,000 Climbing FlightAware ADS-B
Mon 01:33:02 PM 47.5447 -122.0990 360° North 297 342 10,000 1,800 Climbing FlightAware ADS-B
Mon 01:33:07 PM 47.5516 -122.1000 354° North 301 346 10,100 1,636 Climbing FlightAware ADS-B
Mon 01:33:13 PM 47.5596 -122.1030 346° North 307 353 10,300 2,000 Climbing FlightAware ADS-B
Mon 01:33:19 PM 47.5632 -122.1044 345° North 313 360 10,500 1,400 Climbing FlightAware ADS-B
Mon 01:33:43 PM 47.6033 -122.1230 343° North 346 398 11,000 1,444 Climbing FlightAware ADS-B
Mon 01:34:13 PM 47.6513 -122.1470 341° North 381 438 11,800 1,200 Climbing FlightAware ADS-B
Mon 01:34:43 PM 47.7018 -122.1710 342° North 361 415 12,200 300 Climbing FlightAware ADS-B
Mon 01:35:13 PM 47.7469 -122.1930 342° North 330 380 12,100 -176 Descending FlightAware ADS-B
Mon 01:35:17 PM 47.7527 -122.1959 341° North 320 368 12,100 -1,355 Level FlightAware ADS-B
Mon 01:35:44 PM 47.7887 -122.2140 341° North 304 350 11,400 -1,455 Descending FlightAware ADS-B
Mon 01:35:50 PM 47.7979 -122.2181 343° North 292 336 11,300 -1,200 Descending FlightAware ADS-B
Mon 01:36:14 PM 47.8273 -122.2320 342° North 279 321 10,800 -1,171 Descending FlightAware ADS-B
Mon 01:36:31 PM 47.8476 -122.2423 341° North 269 310 10,500 -1,200 Descending FlightAware ADS-B
Mon 01:36:39 PM 47.8567 -122.2470 341° North 267 307 10,300 -720 Descending FlightAware ADS-B
Mon 01:36:56 PM 47.8767 -122.2570 341° North 271 312 10,200 -231 Descending FlightAware ADS-B
Mon 01:37:05 PM 47.8888 -122.2610 348° North 277 319 10,200  Level FlightAware ADS-B
Mon 01:37:12 PM 47.8973 -122.2610 360° North 280 322 10,200  Level FlightAware ADS-B
Mon 01:37:13 PM 47.8786 -122.2576 173° South 282 325 10,200  Level FlightAware ADS-B
Mon 01:37:17 PM 47.9041 -122.2600 356° North 283 326 10,200  Level FlightAware ADS-B
Mon 01:37:21 PM 47.9084 -122.2580 17° North 284 327 10,200  Level FlightAware ADS-B
Mon 01:37:35 PM 47.9268 -122.2500 16° North 283 326 10,200 -1,167 Level FlightAware ADS-B
Mon 01:37:57 PM 47.9537 -122.2360 19° North 278 320 9,500 -1,459 Descending FlightAware ADS-B
Mon 01:38:12 PM 47.9716 -122.2270 19° North 279 321 9,300 -818 Descending FlightAware ADS-B
Mon 01:38:19 PM 47.9805 -122.2216 22° Northeast 279 321 9,200 -545 Descending FlightAware ADS-B
Mon 01:38:23 PM 47.9852 -122.2190 20° North 278 320 9,200  Level FlightAware ADS-B
Mon 01:38:39 PM 48.0041 -122.2060 25° Northeast 280 322 9,200  Level FlightAware ADS-B
Mon 01:38:56 PM 48.0239 -122.1930 24° Northeast 279 321 9,200  Level FlightAware ADS-B
Mon 01:38:59 PM 48.0267 -122.1908 28° Northeast 279 321 9,200  Level FlightAware ADS-B
Mon 01:39:12 PM 48.0430 -122.1800 24° Northeast 278 320 9,200  Level FlightAware ADS-B
Mon 01:39:16 PM 48.0470 -122.1773 24° Northeast 279 321 9,200  Level FlightAware ADS-B
Mon 01:39:28 PM 48.0611 -122.1680 24° Northeast 280 322 9,200  Level FlightAware ADS-B
Mon 01:39:43 PM 48.0791 -122.1560 24° Northeast 280 322 9,200  Level FlightAware ADS-B
Mon 01:39:58 PM 48.0972 -122.1440 24° Northeast 282 325 9,200  Level FlightAware ADS-B
Mon 01:40:03 PM 48.1031 -122.1399 25° Northeast 275 316 9,200  Level FlightAware ADS-B
Mon 01:40:07 PM 48.1073 -122.1370 25° Northeast 282 325 9,200  Level FlightAware ADS-B
Mon 01:40:11 PM 48.1122 -122.1320 34° Northeast 283 326 9,200  Level FlightAware ADS-B
Mon 01:40:19 PM 48.1197 -122.1230 39° Northeast 283 326 9,200  Level FlightAware ADS-B
Mon 01:40:23 PM 48.1234 -122.1170 47° Northeast 282 325 9,200  Level FlightAware ADS-B
Mon 01:40:30 PM 48.1286 -122.1060 55° Northeast 282 325 9,200  Level FlightAware ADS-B
Mon 01:40:33 PM 48.1308 -122.1000 61° Northeast 281 323 9,200  Level FlightAware ADS-B
Mon 01:40:37 PM 48.1329 -122.0930 66° East 281 323 9,200  Level FlightAware ADS-B
Mon 01:40:40 PM 48.1344 -122.0870 69° East 280 322 9,200  Level FlightAware ADS-B
Mon 01:40:44 PM 48.1356 -122.0800 76° East 278 320 9,200  Level FlightAware ADS-B
Mon 01:40:49 PM 48.1365 -122.0700 82° East 277 319 9,200  Level FlightAware ADS-B
Mon 01:40:59 PM 48.1367 -122.0520 89° East 274 315 9,200  Level FlightAware ADS-B
Mon 01:41:14 PM 48.1352 -122.0240 95° East 271 312 9,200  Level FlightAware ADS-B
Mon 01:41:30 PM 48.1332 -121.9950 96° East 271 312 9,200  Level FlightAware ADS-B
Mon 01:41:31 PM 48.1330 -121.9923 97° East 271 312 9,200  Level FlightAware ADS-B
Mon 01:41:46 PM 48.1311 -121.9640 96° East 281 323 9,200  Level FlightAware ADS-B
Mon 01:41:54 PM 48.1298 -121.9480 97° East 284 327 9,200  Level FlightAware ADS-B
Mon 01:41:59 PM 48.1287 -121.9390 100° East 283 326 9,200  Level FlightAware ADS-B
Mon 01:42:14 PM 48.1244 -121.9103 103° East 281 323 9,200  Level FlightAware ADS-B
Mon 01:42:16 PM 48.1237 -121.9060 104° East 281 323 9,200  Level FlightAware ADS-B
Mon 01:42:31 PM 48.1193 -121.8780 103° East 283 326 9,200  Level FlightAware ADS-B
Mon 01:42:46 PM 48.1149 -121.8490 103° East 283 326 9,200  Level FlightAware ADS-B
Mon 01:43:02 PM 48.1105 -121.8190 102° East 283 326 9,200  Level FlightAware ADS-B
Mon 01:43:17 PM 48.1062 -121.7910 103° East 282 325 9,200  Level FlightAware ADS-B
Mon 01:43:32 PM 48.1019 -121.7620 103° East 281 323 9,200  Level FlightAware ADS-B
Mon 01:43:47 PM 48.0974 -121.7330 103° East 284 327 9,200 194 Level FlightAware ADS-B
Mon 01:44:03 PM 48.0929 -121.7030 103° East 285 328 9,300 1,355 Climbing FlightAware ADS-B
Mon 01:44:18 PM 48.0884 -121.6730 103° East 286 329 9,900 1,862 Climbing FlightAware ADS-B
Mon 01:44:32 PM 48.0844 -121.6460 102° East 299 344 10,200 400 Climbing FlightAware ADS-B
Mon 01:45:03 PM 48.0766 -121.5800 100° East 329 379 10,200 98 Level FlightAware ADS-B
Mon 01:45:33 PM 48.0693 -121.5110 99° East 329 379 10,300 92 Climbing FlightAware ADS-B
Mon 01:46:08 PM 48.0615 -121.4340 99° East 327 376 10,300 923 Level FlightAware ADS-B
Mon 01:46:38 PM 48.0547 -121.3670 99° East 316 364 11,300 2,057 Climbing FlightAware ADS-B
Mon 01:46:43 PM 48.0538 -121.3560 97° East 316 364 11,500 1,833 Climbing FlightAware ADS-B
Mon 01:47:14 PM 48.0523 -121.2900 92° East 304 350 12,400 1,475 Climbing FlightAware ADS-B
Mon 01:47:44 PM 48.0518 -121.2270 91° East 308 354 13,000 1,082 Climbing FlightAware ADS-B
Mon 01:48:15 PM 48.0514 -121.1610 90° East 312 359 13,500 774 Climbing FlightAware ADS-B
Mon 01:48:46 PM 48.0509 -121.0940 91° East 316 364 13,800 533 Climbing FlightAware ADS-B
Mon 01:49:00 PM 48.0504 -121.0640 91° East 317 365 13,900 533 Climbing FlightAware ADS-B
Mon 01:49:31 PM 48.0467 -120.9940 94° East 347 399 14,200 590 Climbing FlightAware ADS-B
Mon 01:50:01 PM 48.0423 -120.9170 95° East 390 449 14,500 300 Climbing FlightAware ADS-B
Mon 01:50:31 PM 48.0369 -120.8340 96° East 409 471 14,500 98 Level FlightAware ADS-B
Mon 01:51:02 PM 48.0311 -120.7470 96° East 410 472 14,600 98 Climbing FlightAware ADS-B
Mon 01:51:32 PM 48.0250 -120.6630 96° East 409 471 14,600  Level FlightAware ADS-B
Mon 01:51:42 PM 48.0228 -120.6340 96° East 408 470 14,600 286 Level FlightAware ADS-B
Mon 01:51:53 PM 48.0142 -120.6090 117° Southeast 389 448 14,700 600 Climbing FlightAware ADS-B
Mon 01:52:02 PM 48.0036 -120.5880 127° Southeast 395 455 14,800 462 Climbing FlightAware ADS-B
Mon 01:52:06 PM 48.0010 -120.5790 113° Southeast 398 458 14,800  Level FlightAware ADS-B
Mon 01:52:10 PM 47.9993 -120.5680 103° East 401 461 14,800  Level FlightAware ADS-B
Mon 01:52:16 PM 47.9987 -120.5500 93° East 410 472 14,800 500 Level FlightAware ADS-B
Mon 01:52:22 PM 48.0005 -120.5340 80° East 413 475 14,900 632 Climbing FlightAware ADS-B
Mon 01:52:54 PM 48.0231 -120.4500 68° East 407 468 15,200 439 Climbing FlightAware ADS-B
Mon 01:53:03 PM 48.0220 -120.4250 94° East 405 466 15,200 490 Level FlightAware ADS-B
Mon 01:53:43 PM 48.0092 -120.3403 94° East 415 478 15,600 -178 Climbing Seattle Center
Mon 01:54:44 PM 47.9767 -120.1858 107° East 396 456 14,900 -295 Descending Seattle Center
Mon 01:55:45 PM 47.9211 -120.0278 118° Southeast 406 467 15,000 197 Climbing Seattle Center
Mon 01:56:46 PM 47.8708 -119.8778 117° Southeast 431 496 15,300 148 Climbing Seattle Center
Mon 01:57:47 PM 47.8386 -119.7139 106° East 421 484 15,300 -50 Level Seattle Center
Mon 01:58:47 PM 47.8236 -119.5289 97° East 452 520 15,200  Descending Seattle Center
Mon 01:59:48 PM 47.8122 -119.3422 95° East 455 524 15,300 -148 Climbing Seattle Center
Mon 02:00:49 PM 47.7514 -119.1892 121° Southeast 439 505 14,900 49 Descending Seattle Center
Mon 02:01:50 PM 47.7686 -119.0072 82° East 455 524 15,400  Climbing Seattle Center
Mon 02:02:51 PM 47.7331 -118.8303 107° East 463 533 14,900 -197 Descending Seattle Center
Mon 02:03:52 PM 47.7467 -118.6358 84° East 491 565 15,000 197 Climbing Seattle Center
Mon 02:04:53 PM 47.7258 -118.4400 99° East 494 568 15,300 99 Climbing Seattle Center
Mon 02:05:53 PM 47.7394 -118.2464 84° East 472 543 15,200 -50 Descending Seattle Center
Mon 02:06:54 PM 47.6942 -118.0753 111° Southeast 468 539 15,200 246 Level Seattle Center
Mon 02:07:55 PM 47.6433 -117.8942 113° Southeast 452 520 15,700 1,230 Climbing Seattle Center
Mon 02:08:56 PM 47.6392 -117.7094 92° East 451 519 17,700 2,115 Climbing Seattle Center
Mon 02:09:57 PM 47.6414 -117.5467 89° East 451 519 20,000 1,967 Climbing Seattle Center
Mon 02:10:58 PM 47.6456 -117.3564 88° East 459 528 21,700 934 Climbing Seattle Center
Mon 02:11:59 PM 47.6489 -117.1558 89° East 477 549 21,900 98 Climbing Seattle Center
Mon 02:13:00 PM 47.6539 -116.9561 88° East 468 539 21,900 246 Level Seattle Center
Mon 02:14:01 PM 47.6439 -116.7775 95° East 462 532 22,400 49 Climbing Seattle Center
Mon 02:15:02 PM 47.6306 -116.5950 96° East 461 531 22,000 -149 Descending Seattle Center
Mon 02:16:02 PM 47.6250 -116.3944 92° East 482 555 22,100 -99 Climbing Seattle Center
Mon 02:17:03 PM 47.6783 -116.2228 65° Northeast 498 573 21,800 -148 Descending Seattle Center
Mon 02:18:04 PM 47.6403 -116.0325 106° East 496 571 21,800  Level Seattle Center
Mon 02:19:05 PM 47.6525 -115.8322 85° East 496 571 21,800 98 Level Seattle Center
Mon 02:20:06 PM 47.7389 -115.9294 323° Northwest 482 555 22,000 197 Climbing Seattle Center
Mon 02:21:07 PM 47.7542 -116.1122 277° West 466 536 22,200  Climbing Seattle Center
Mon 02:22:08 PM 47.7350 -116.2981 261° West 459 528 22,000 -49 Descending Seattle Center
Mon 02:23:09 PM 47.7294 -116.4856 268° West 458 527 22,100 -49 Climbing Seattle Center
Mon 02:24:10 PM 47.7542 -116.6639 282° West 457 526 21,900 -98 Descending Seattle Center
Mon 02:25:11 PM 47.8067 -116.8264 296° West 470 541 21,900  Level Seattle Center
Mon 02:26:12 PM 47.7939 -117.0103 264° West 459 528 21,900 -49 Level Seattle Center
Mon 02:27:13 PM 47.8206 -117.1858 283° West 476 548 21,800 49 Descending Seattle Center
Mon 02:28:14 PM 47.8589 -117.3575 288° West 469 540 22,000 148 Climbing Seattle Center
Mon 02:29:15 PM 47.8994 -117.5722 286° West 465 535 22,100  Climbing Seattle Center
Mon 02:30:16 PM 47.8878 -117.7619 265° West 462 532 22,000 -49 Descending Seattle Center
Mon 02:31:17 PM 47.8906 -117.9475 271° West 456 525 22,000 -49 Level Seattle Center
Mon 02:32:18 PM 47.9058 -118.1339 277° West 455 524 21,900  Descending Seattle Center
Mon 02:33:19 PM 47.9153 -118.3214 274° West 456 525 22,000 98 Climbing Seattle Center
Mon 02:34:20 PM 47.9178 -118.5111 271° West 459 528 22,100  Climbing Seattle Center
Mon 02:40:02 PM 48.0052 -119.6200 271° West 460 529 22,000 -16 Descending FlightAware ADS-B
Mon 02:40:33 PM 48.0105 -119.7190 275° West 462 532 22,000  Level FlightAware ADS-B
Mon 02:41:05 PM 48.0149 -119.8200 274° West 464 534 22,000  Level FlightAware ADS-B
Mon 02:41:35 PM 48.0184 -119.9160 273° West 464 534 22,000  Level FlightAware ADS-B
Mon 02:42:06 PM 48.0210 -120.0130 272° West 465 535 22,000  Level FlightAware ADS-B
Mon 02:42:36 PM 48.0226 -120.1120 271° West 466 536 22,000 143 Level FlightAware ADS-B
Mon 02:42:48 PM 48.0232 -120.1500 271° West 466 536 22,100 632 Climbing FlightAware ADS-B
Mon 02:42:55 PM 48.0244 -120.1710 275° West 462 532 22,200 194 Climbing FlightAware ADS-B
Mon 02:43:19 PM 48.0330 -120.2460 280° West 467 537 22,200 -107 Level FlightAware ADS-B
Mon 02:43:51 PM 48.0423 -120.3480 278° West 468 539 22,100 -97 Descending FlightAware ADS-B
Mon 02:44:21 PM 48.0497 -120.4460 276° West 468 539 22,100 -197 Level FlightAware ADS-B
Mon 02:44:52 PM 48.0556 -120.5440 275° West 468 539 21,900 -295 Descending FlightAware ADS-B
Mon 02:45:22 PM 48.0601 -120.6410 274° West 465 535 21,800  Descending FlightAware ADS-B
Mon 02:45:52 PM 48.0631 -120.7380 273° West 463 533 21,900 197 Climbing FlightAware ADS-B
Mon 02:46:23 PM 48.0676 -120.8350 274° West 467 537 22,000 100 Climbing FlightAware ADS-B
Mon 02:46:52 PM 48.0728 -120.9297 275° West 468 539 22,000  Level FlightAware ADS-B
Mon 02:46:53 PM 48.0730 -120.9340 274° West 468 539 22,000  Level FlightAware ADS-B
Mon 02:47:24 PM 48.0784 -121.0320 275° West 464 534 22,000  Level FlightAware ADS-B
Mon 02:47:32 PM 48.0797 -121.0572 274° West 463 533 22,000 -194 Level FlightAware ADS-B
Mon 02:47:55 PM 48.0836 -121.1300 275° West 460 529 21,900 -226 Descending FlightAware ADS-B
Mon 02:48:25 PM 48.0886 -121.2260 274° West 463 533 21,800 -158 Descending FlightAware ADS-B
Mon 02:48:33 PM 48.0899 -121.2520 274° West 461 531 21,800  Level FlightAware ADS-B
Mon 02:48:55 PM 48.0932 -121.3210 274° West 460 529 21,800 150 Level FlightAware ADS-B
Mon 02:49:13 PM 48.0960 -121.3779 274° West 455 524 21,900 200 Climbing FlightAware ADS-B
Mon 02:49:25 PM 48.0980 -121.4160 275° West 451 519 21,900 158 Level FlightAware ADS-B
Mon 02:49:51 PM 48.1021 -121.4939 274° West 436 502 22,000 200 Climbing FlightAware ADS-B
Mon 02:49:55 PM 48.1028 -121.5080 275° West 434 499 22,000  Level FlightAware ADS-B
Mon 02:50:26 PM 48.1075 -121.5990 274° West 437 503 22,000  Level FlightAware ADS-B
Mon 02:50:34 PM 48.1091 -121.6242 275° West 439 505 22,000  Level FlightAware ADS-B
Mon 02:50:37 PM 48.1100 -121.6330 279° West 440 506 22,000  Level FlightAware ADS-B
Mon 02:50:42 PM 48.1123 -121.6490 282° West 441 507 22,000  Level FlightAware ADS-B
Mon 02:50:47 PM 48.1073 -121.5952 98° East 444 511 22,000  Level FlightAware ADS-B
Mon 02:50:59 PM 48.1267 -121.6950 286° West 450 518 22,000  Level FlightAware ADS-B
Mon 02:51:10 PM 48.1421 -121.7190 314° West 457 526 22,000  Level FlightAware ADS-B
Mon 02:51:12 PM 48.1468 -121.7247 321° Northwest 459 528 22,000  Level FlightAware ADS-B
Mon 02:51:22 PM 48.1638 -121.7390 331° Northwest 463 533 22,000  Level FlightAware ADS-B
Mon 02:51:28 PM 48.1765 -121.7460 340° North 469 540 22,000  Level FlightAware ADS-B
Mon 02:51:32 PM 48.1824 -121.7484 345° North 473 544 22,000  Level FlightAware ADS-B
Mon 02:51:35 PM 48.1910 -121.7510 349° North 474 545 22,000  Level FlightAware ADS-B
Mon 02:51:43 PM 48.2091 -121.7510 360° North 480 552 22,000  Level FlightAware ADS-B
Mon 02:51:48 PM 48.2202 -121.7500 North 483 556 22,000  Level FlightAware ADS-B
Mon 02:51:52 PM 48.2180 -121.7501 181° South 483 556 22,000  Level FlightAware ADS-B
Mon 02:51:57 PM 48.2397 -121.7410 16° North 487 560 22,000  Level FlightAware ADS-B
Mon 02:52:04 PM 48.2536 -121.7320 23° Northeast 491 565 22,000  Level FlightAware ADS-B
Mon 02:52:13 PM 48.2559 -121.7295 35° Northeast 493 567 22,000  Level FlightAware ADS-B
Mon 02:52:21 PM 48.2834 -121.6940 41° Northeast 495 570 22,000  Level FlightAware ADS-B
Mon 02:52:32 PM 48.2966 -121.6620 58° Northeast 497 572 22,000  Level FlightAware ADS-B
Mon 02:52:33 PM 48.2981 -121.6574 63° Northeast 494 568 22,000  Level FlightAware ADS-B
Mon 02:52:47 PM 48.3064 -121.6120 75° East 496 571 22,000  Level FlightAware ADS-B
Mon 02:52:54 PM 48.3071 -121.5890 87° East 493 567 22,000  Level FlightAware ADS-B
Mon 02:52:59 PM 48.3062 -121.5730 95° East 490 564 22,000  Level FlightAware ADS-B
Mon 02:53:09 PM 48.3009 -121.5400 104° East 485 558 22,000  Level FlightAware ADS-B
Mon 02:53:15 PM 48.2953 -121.5210 114° Southeast 481 554 22,000  Level FlightAware ADS-B
Mon 02:53:22 PM 48.2862 -121.5000 123° Southeast 475 547 22,000  Level FlightAware ADS-B
Mon 02:53:31 PM 48.2732 -121.4780 132° Southeast 471 542 22,000  Level FlightAware ADS-B
Mon 02:53:38 PM 48.2621 -121.4628 137° Southeast 464 534 22,000  Level FlightAware ADS-B
Mon 02:54:02 PM 48.2248 -121.4110 137° Southeast 469 540 22,000  Level FlightAware ADS-B
Mon 02:54:19 PM 48.1972 -121.3728 137° Southeast 465 535 22,000  Level FlightAware ADS-B
Mon 02:54:32 PM 48.1768 -121.3440 137° Southeast 470 541 22,000  Level FlightAware ADS-B
Mon 02:54:52 PM 48.1449 -121.2990 137° Southeast 470 541 22,000  Level FlightAware ADS-B
Mon 02:55:02 PM 48.1304 -121.2750 132° Southeast 473 544 22,000  Level FlightAware ADS-B
Mon 02:55:12 PM 48.1186 -121.2470 122° Southeast 479 551 22,000  Level FlightAware ADS-B
Mon 02:55:21 PM 48.1112 -121.2190 112° Southeast 485 558 22,000  Level FlightAware ADS-B
Mon 02:55:30 PM 48.1066 -121.1910 104° East 488 562 22,000  Level FlightAware ADS-B
Mon 02:55:32 PM 48.1057 -121.1847 102° East 489 563 22,000  Level FlightAware ADS-B
Mon 02:56:00 PM 48.0955 -121.0900 99° East 494 568 22,000  Level FlightAware ADS-B
Mon 02:56:06 PM 48.0933 -121.0678 99° East 497 572 22,000  Level FlightAware ADS-B
Mon 02:56:31 PM 48.0848 -120.9850 99° East 506 582 22,000  Level FlightAware ADS-B
Mon 02:57:01 PM 48.0737 -120.8780 99° East 521 600 22,000  Level FlightAware ADS-B
Mon 02:57:31 PM 48.0625 -120.7700 99° East 536 617 22,000 98 Level FlightAware ADS-B
Mon 02:58:02 PM 48.0508 -120.6580 99° East 542 624 22,100 92 Climbing FlightAware ADS-B
Mon 02:58:36 PM 48.0376 -120.5310 99° East 537 618 22,100  Level FlightAware ADS-B
Mon 02:58:45 PM 48.0335 -120.4980 101° East 540 621 22,100  Level FlightAware ADS-B
Mon 02:58:57 PM 48.0201 -120.4600 118° Southeast 527 606 22,100 222 Level FlightAware ADS-B
Mon 02:59:12 PM 47.9975 -120.4160 127° Southeast 529 609 22,200 286 Climbing FlightAware ADS-B
Mon 02:59:18 PM 47.9900 -120.3970 121° Southeast 531 611 22,200  Level FlightAware ADS-B
Mon 02:59:23 PM 47.9851 -120.3810 115° Southeast 534 615 22,200 1,333 Level FlightAware ADS-B
Mon 02:59:27 PM 47.9825 -120.3670 106° East 532 612 22,400 1,500 Climbing FlightAware ADS-B
Mon 02:59:35 PM 47.9807 -120.3390 95° East 531 611 22,500 -154 Climbing FlightAware ADS-B
Mon 03:00:06 PM 47.9772 -120.2240 93° East 539 620 22,300 -197 Descending FlightAware ADS-B
Mon 03:00:36 PM 47.9746 -120.1170 92° East 496 571 22,300 98 Level FlightAware ADS-B
Mon 03:01:07 PM 47.9727 -120.0120 92° East 480 552 22,400 95 Climbing FlightAware ADS-B
Mon 03:01:39 PM 47.9707 -119.9080 92° East 473 544 22,400 95 Level FlightAware ADS-B
Mon 03:02:10 PM 47.9688 -119.8070 92° East 474 545 22,500 435 Climbing FlightAware ADS-B
Mon 03:02:48 PM 47.9629 -119.6810 94° East 481 554 22,900 366 Climbing FlightAware ADS-B
Mon 03:03:32 PM 47.9557 -119.5360 94° East 484 557 23,000 590 Climbing FlightAware ADS-B
Mon 03:04:50 PM 47.9411 -119.2831 94° East 495 570 24,100 993 Climbing Seattle Center
Mon 03:05:51 PM 47.9314 -119.0661 94° East 516 594 25,300 934 Climbing Seattle Center
Mon 03:06:52 PM 47.9203 -118.8417 94° East 534 615 26,000 344 Climbing Seattle Center
Mon 03:07:53 PM 47.9103 -118.6114 94° East 555 639 26,000 -197 Level Seattle Center
Mon 03:08:54 PM 47.8650 -118.3908 107° East 566 651 25,600 -197 Descending Seattle Center
Mon 03:09:55 PM 47.8447 -118.1619 97° East 570 656 25,600 98 Level Seattle Center
Mon 03:10:56 PM 47.8264 -117.9328 97° East 576 663 25,800  Climbing Seattle Center
Mon 03:11:57 PM 47.7897 -117.7117 104° East 576 663 25,600 148 Descending Seattle Center
Mon 03:12:58 PM 47.7650 -117.4794 99° East 586 674 26,100 1,131 Climbing Seattle Center
Mon 03:13:59 PM 47.7553 -117.2547 94° East 548 631 27,900 885 Climbing Seattle Center
Mon 03:15:00 PM 47.7439 -117.0364 94° East 531 611 27,900 -148 Level Seattle Center
Mon 03:16:01 PM 47.8033 -116.8583 64° Northeast 523 602 27,600 -148 Descending Seattle Center
Mon 03:17:02 PM 47.7942 -116.6511 94° East 511 588 27,600 246 Level Seattle Center
Mon 03:18:03 PM 47.7639 -116.4386 102° East 523 602 28,100 198 Climbing Seattle Center
Mon 03:19:03 PM 47.6858 -116.2719 125° Southeast 527 606 28,000 -99 Descending Seattle Center
Mon 03:20:04 PM 47.5814 -116.3744 214° Southwest 488 562 27,900 -98 Descending Seattle Center
Mon 03:21:05 PM 47.6417 -116.5256 301° West 473 544 27,800  Descending Seattle Center
Mon 03:22:06 PM 47.7450 -116.6939 312° West 481 554 27,900 49 Climbing Seattle Center
Mon 03:23:07 PM 47.7633 -116.8794 278° West 477 549 27,900 148 Level Seattle Center
Mon 03:24:08 PM 47.8225 -117.0386 299° West 493 567 28,200 49 Climbing Seattle Center
Mon 03:25:09 PM 47.8089 -117.2331 264° West 485 558 28,000 -197 Descending Seattle Center
Mon 03:26:10 PM 47.8358 -117.4222 282° West 499 574 27,800 -49 Descending Seattle Center
Mon 03:27:11 PM 47.8456 -117.6189 274° West 502 578 27,900 98 Climbing Seattle Center
Mon 03:28:12 PM 47.8922 -117.8056 291° West 491 565 28,000  Climbing Seattle Center
Mon 03:29:13 PM 47.8817 -117.9931 265° West 463 533 27,900 -1,967 Descending Seattle Center
Mon 03:30:14 PM 47.8536 -118.1947 258° West 437 503 24,000 -2,380 Descending Seattle Center
Mon 03:31:14 PM 47.7786 -118.3350 232° Southwest 438 504 23,100 -2,826 Descending Seattle Center
Mon 03:32:15 PM 47.7072 -118.4719 232° Southwest 426 490 18,300 -3,541 Descending Seattle Center
Mon 03:33:16 PM 47.6344 -118.6086 232° Southwest 407 468 15,900 -2,803 Descending Seattle Center
Mon 03:34:17 PM 47.5692 -118.7328 232° Southwest 384 442 12,600 -2,705 Descending Seattle Center
Mon 03:35:18 PM 47.5178 -118.8417 235° Southwest 312 359 10,400 -1,869 Descending Seattle Center
Mon 03:36:19 PM 47.4792 -118.9456 241° Southwest 266 306 8,800 -1,820 Descending Seattle Center
Mon 03:37:20 PM 47.4481 -119.0253 240° Southwest 227 261 6,700 -2,213 Descending Seattle Center
Mon 03:38:21 PM 47.4189 -119.1019 241° Southwest 216 249 4,300 -2,361 Descending Seattle Center

Login

Don't have an account? Register now (free) for customized features, flight alerts, and more!